Aviation Digital Data Service (ADDS)

Output produced by METARs form (0855 UTC 26 January 2020)
found at http://www.aviationweather.gov/metar/data/
 
Forecast for: NFNA (NAUSORI FIJI , FJ)
Text: TAF NFNA 260512Z 2606/2706 15009KT 9999 SCT020 SCT050
Forecast period: 0600 UTC 26 January 2020 to 0600 UTC 27 January 2020
Forecast type: FROM: standard forecast or significant change
Winds: from the SSE (150 degrees) at 10 MPH (9 knots; 4.6 m/s)
Visibility: 6 or more miles 10+ km)
Ceiling: at least 12,000 feet AGL
Clouds: scattered clouds at 2000 feet AGL
scattered clouds at 5000 feet AGL
Weather: no significant weather forecast for this period
Text: PROB30
Forecast period: 0600 to 1000 UTC 26 January 2020
Forecast type: TEMPORARY: The following changes expected for less than half the time period
Visibility: 3 miles (5 km)
Ceiling: 1500 feet AGL
Clouds: broken clouds at 1500 feet AGL
Weather: SHRA  (rain showers)
Text: TEMPO 2606/2610 5000 SHRA BKN015
Forecast period: 1700 to 2100 UTC 26 January 2020
Forecast type: TEMPORARY: The following changes expected for less than half the time period
Visibility: 3 miles (5 km)
Ceiling: 1500 feet AGL
Clouds: broken clouds at 1500 feet AGL
Weather: SHRA  (rain showers)